createdAt,value
2019-04-25T00:00:02.007Z,59.20
2019-04-25T00:04:19.194Z,59.70
2019-04-25T00:08:37.248Z,61.00
2019-04-25T00:12:53.787Z,61.90
2019-04-25T00:17:11.378Z,62.50
2019-04-25T00:21:36.233Z,63.30
2019-04-25T00:26:11.229Z,63.50
2019-04-25T00:30:31.211Z,64.20
2019-04-25T00:34:48.459Z,65.30
2019-04-25T00:39:05.801Z,67.30
2019-04-25T00:43:22.681Z,68.80
2019-04-25T00:47:39.491Z,69.90
2019-04-25T00:51:55.971Z,71.00
2019-04-25T00:56:12.508Z,71.50
2019-04-25T01:00:41.631Z,72.60
2019-04-25T01:04:58.301Z,74.00
2019-04-25T01:09:16.652Z,74.10
2019-04-25T01:13:33.131Z,74.90
2019-04-25T01:17:51.240Z,75.30
2019-04-25T01:22:08.939Z,76.00
2019-04-25T01:26:25.371Z,76.00
2019-04-25T01:30:41.968Z,76.30
2019-04-25T01:35:04.036Z,76.80
2019-04-25T01:39:29.557Z,77.50
2019-04-25T01:43:58.380Z,77.70
2019-04-25T01:48:13.718Z,77.20
2019-04-25T01:52:30.654Z,76.70
2019-04-25T01:56:47.182Z,76.30
2019-04-25T02:01:04.600Z,75.90
2019-04-25T02:05:21.771Z,75.40
2019-04-25T02:09:38.558Z,75.60
2019-04-25T02:13:55.844Z,77.00
2019-04-25T02:18:13.746Z,77.30
2019-04-25T02:22:30.427Z,77.50
2019-04-25T02:26:46.869Z,78.20
2019-04-25T02:31:08.393Z,79.20
2019-04-25T02:35:21.881Z,80.10
2019-04-25T02:39:38.435Z,80.20
2019-04-25T02:44:00.019Z,79.90
2019-04-25T02:48:24.157Z,80.60
2019-04-25T02:52:44.345Z,81.10
2019-04-25T02:57:02.051Z,81.10
2019-04-25T03:01:22.711Z,80.90
2019-04-25T03:05:37.551Z,81.60
2019-04-25T03:09:54.839Z,81.60
2019-04-25T03:14:11.584Z,81.70
2019-04-25T03:18:30.128Z,81.60
2019-04-25T03:22:47.037Z,81.80
2019-04-25T03:27:05.207Z,81.50
2019-04-25T03:31:26.452Z,82.10
2019-04-25T03:35:40.282Z,82.90
2019-04-25T03:39:56.743Z,82.60
2019-04-25T03:44:13.992Z,82.90
2019-04-25T03:48:30.608Z,83.50
2019-04-25T03:52:47.099Z,83.90
2019-04-25T03:57:05.257Z,84.30
2019-04-25T04:01:22.095Z,84.80
2019-04-25T04:05:38.836Z,85.30
2019-04-25T04:09:55.416Z,85.60
2019-04-25T04:14:14.503Z,86.50
2019-04-25T04:18:34.002Z,87.40
2019-04-25T04:22:55.475Z,87.40
2019-04-25T04:27:16.734Z,87.40
2019-04-25T04:31:33.616Z,87.20
2019-04-25T04:35:51.189Z,87.30
2019-04-25T04:40:08.071Z,87.40
2019-04-25T04:44:25.206Z,87.90
2019-04-25T04:48:41.753Z,88.20
2019-04-25T04:52:59.300Z,88.40
2019-04-25T04:57:26.255Z,88.20
2019-04-25T05:01:36.393Z,88.20
2019-04-25T05:05:53.510Z,87.40
2019-04-25T05:10:14.322Z,87.80
2019-04-25T05:14:30.871Z,87.80
2019-04-25T05:18:47.451Z,88.00
2019-04-25T05:23:03.944Z,88.00
2019-04-25T05:27:37.310Z,88.30
2019-04-25T05:31:43.950Z,88.50
2019-04-25T05:36:03.722Z,87.60
2019-04-25T05:40:20.765Z,87.30
2019-04-25T05:44:37.265Z,85.80
2019-04-25T05:48:53.851Z,85.40
2019-04-25T05:53:10.511Z,85.20
2019-04-25T05:57:27.305Z,85.80
2019-04-25T06:01:44.861Z,84.00
2019-04-25T06:06:03.641Z,82.40
2019-04-25T06:10:23.566Z,79.80
2019-04-25T06:14:40.535Z,79.70
2019-04-25T06:19:14.239Z,77.10
2019-04-25T06:23:41.348Z,75.40
2019-04-25T06:27:59.841Z,77.30
2019-04-25T06:32:16.490Z,76.40
2019-04-25T06:36:35.222Z,73.70
2019-04-25T06:40:53.513Z,72.40
2019-04-25T06:45:30.208Z,75.00
2019-04-25T06:49:47.226Z,76.40
2019-04-25T06:54:03.761Z,78.50
2019-04-25T06:58:20.286Z,79.20
2019-04-25T07:02:37.098Z,73.50
2019-04-25T07:06:54.014Z,63.00
2019-04-25T07:11:10.640Z,60.80
2019-04-25T07:15:27.953Z,59.70
2019-04-25T07:19:44.505Z,58.80
2019-04-25T07:24:01.002Z,57.80
2019-04-25T07:28:24.107Z,56.40
2019-04-25T07:32:50.008Z,52.80
2019-04-25T07:37:06.612Z,50.90
2019-04-25T07:41:24.232Z,50.40
2019-04-25T07:51:01.827Z,46.90
2019-04-25T07:55:18.810Z,44.70
2019-04-25T08:05:29.668Z,43.40
2019-04-25T08:09:44.358Z,35.50
2019-04-25T08:14:33.979Z,34.90
2019-04-25T08:18:57.156Z,35.90
2019-04-25T08:23:39.764Z,35.60
2019-04-25T08:28:03.831Z,34.80
2019-04-25T08:32:35.525Z,35.00
2019-04-25T08:37:00.458Z,35.00
2019-04-25T08:41:28.335Z,36.00
2019-04-25T08:45:46.992Z,36.70
2019-04-25T08:50:08.103Z,35.60
2019-04-25T08:54:27.449Z,35.90
2019-04-25T08:59:06.228Z,33.80
2019-04-25T09:03:24.201Z,34.50
2019-04-25T09:07:40.878Z,33.30
2019-04-25T09:11:57.595Z,29.10
2019-04-25T09:16:15.579Z,30.80
2019-04-25T09:20:34.873Z,30.30
2019-04-25T09:24:51.559Z,29.20
2019-04-25T09:29:16.912Z,29.70
2019-04-25T09:33:26.521Z,30.10
2019-04-25T09:37:44.750Z,30.10
2019-04-25T09:42:01.926Z,30.70
2019-04-25T09:46:29.595Z,29.40
2019-04-25T09:50:48.380Z,29.50
2019-04-25T09:55:26.351Z,29.10
2019-04-25T09:59:43.942Z,29.40
2019-04-25T10:04:01.878Z,29.10
2019-04-25T10:08:18.655Z,28.80
2019-04-25T10:12:35.342Z,29.70
2019-04-25T10:16:52.455Z,28.30
2019-04-25T10:21:14.134Z,29.00
2019-04-25T10:25:30.914Z,28.10
2019-04-25T10:29:53.443Z,27.30
2019-04-25T10:34:06.382Z,27.90
2019-04-25T10:38:24.904Z,27.50
2019-04-25T10:42:44.163Z,27.00
2019-04-25T10:47:00.520Z,27.20
2019-04-25T10:51:17.532Z,27.00
2019-04-25T10:55:34.298Z,27.00
2019-04-25T11:00:00.399Z,26.90
2019-04-25T11:04:23.261Z,27.20
2019-04-25T11:08:40.458Z,27.40
2019-04-25T11:12:57.737Z,27.30
2019-04-25T11:17:15.524Z,28.00
2019-04-25T11:21:33.322Z,27.70
2019-04-25T11:25:50.302Z,27.10
2019-04-25T11:30:11.394Z,26.60
2019-04-25T11:34:27.405Z,27.20
2019-04-25T11:38:46.035Z,27.50
2019-04-25T11:43:04.312Z,27.30
2019-04-25T11:47:21.346Z,26.80
2019-04-25T11:51:38.058Z,26.50
2019-04-25T11:55:54.728Z,27.10
2019-04-25T12:00:22.012Z,25.10
2019-04-25T12:04:31.115Z,25.80
2019-04-25T12:08:47.728Z,24.60
2019-04-25T12:13:04.382Z,24.80
2019-04-25T12:17:21.060Z,24.30
2019-04-25T12:21:37.699Z,24.60
2019-04-25T12:25:55.301Z,23.40
2019-04-25T12:30:13.988Z,22.90
2019-04-25T12:34:30.827Z,21.40
2019-04-25T12:38:48.361Z,20.40
2019-04-25T12:43:05.228Z,19.80
2019-04-25T12:47:26.333Z,19.80
2019-04-25T12:51:42.881Z,19.30
2019-04-25T12:55:59.704Z,19.60
2019-04-25T13:00:22.166Z,19.30
2019-04-25T13:04:38.735Z,19.10
2019-04-25T13:08:55.227Z,19.50
2019-04-25T13:13:13.408Z,18.40
2019-04-25T13:17:30.498Z,18.70
2019-04-25T13:21:47.141Z,18.90
2019-04-25T13:26:05.088Z,18.00
2019-04-25T13:30:40.553Z,18.40
2019-04-25T13:34:59.069Z,18.50
2019-04-25T13:39:16.607Z,18.10
2019-04-25T13:43:33.258Z,17.70
2019-04-25T13:47:50.066Z,17.60
2019-04-25T13:52:08.179Z,17.60
2019-04-25T13:56:26.169Z,17.40
2019-04-25T14:00:44.214Z,17.40
2019-04-25T14:05:00.959Z,16.70
2019-04-25T14:09:19.464Z,16.90
2019-04-25T14:13:36.038Z,17.30
2019-04-25T14:17:58.659Z,18.00
2019-04-25T14:22:15.533Z,19.80
2019-04-25T14:26:32.028Z,19.70
2019-04-25T14:30:48.541Z,20.30
2019-04-25T14:35:05.592Z,20.20
2019-04-25T14:39:22.646Z,21.70
2019-04-25T14:43:40.171Z,21.90
2019-04-25T14:47:56.768Z,21.40
2019-04-25T14:52:13.417Z,21.80
2019-04-25T14:56:32.796Z,22.60
2019-04-25T15:00:51.344Z,21.40
2019-04-25T15:05:08.033Z,21.70
2019-04-25T15:09:24.638Z,22.10
2019-04-25T15:13:41.262Z,21.60
2019-04-25T15:17:59.753Z,21.40
2019-04-25T15:22:17.363Z,20.60
2019-04-25T15:26:33.906Z,20.60
2019-04-25T15:30:51.174Z,20.40
2019-04-25T15:35:10.127Z,20.90
2019-04-25T15:39:28.918Z,22.50
2019-04-25T15:43:45.499Z,23.70
2019-04-25T15:48:04.012Z,24.60
2019-04-25T15:52:20.494Z,25.90
2019-04-25T15:56:37.246Z,26.90
2019-04-25T16:00:54.336Z,28.10
2019-04-25T16:05:11.249Z,28.30
2019-04-25T16:09:27.989Z,29.00
2019-04-25T16:13:44.474Z,29.30
2019-04-25T16:18:01.070Z,29.50
2019-04-25T16:22:17.625Z,30.30
2019-04-25T16:26:34.149Z,30.90
2019-04-25T16:30:50.739Z,30.80
2019-04-25T16:35:07.503Z,31.00
2019-04-25T16:39:25.907Z,31.30
2019-04-25T16:43:44.437Z,31.00
2019-04-25T16:48:01.242Z,32.20
2019-04-25T16:52:17.882Z,31.60
2019-04-25T16:56:34.683Z,32.20
2019-04-25T17:00:53.193Z,32.90
2019-04-25T17:05:11.150Z,33.60
2019-04-25T17:09:28.044Z,34.20
2019-04-25T17:13:46.519Z,34.70
2019-04-25T17:18:10.934Z,34.50
2019-04-25T17:22:30.745Z,34.80
2019-04-25T17:26:47.492Z,35.20
2019-04-25T17:31:23.961Z,35.90
2019-04-25T17:35:54.201Z,35.90
2019-04-25T17:40:12.818Z,36.60
2019-04-25T17:44:29.392Z,37.90
2019-04-25T17:48:46.273Z,37.70
2019-04-25T17:53:03.039Z,39.70
2019-04-25T17:57:19.582Z,40.20
2019-04-25T18:01:36.271Z,41.40
2019-04-25T18:05:53.139Z,42.10
2019-04-25T18:10:10.429Z,42.60
2019-04-25T18:14:26.941Z,42.60
2019-04-25T18:18:55.547Z,43.70
2019-04-25T18:23:29.679Z,44.90
2019-04-25T18:28:05.024Z,44.90
2019-04-25T18:32:22.690Z,45.20
2019-04-25T18:36:39.210Z,45.90
2019-04-25T18:41:03.526Z,46.20
2019-04-25T18:45:31.213Z,47.40
2019-04-25T18:49:47.831Z,47.40
2019-04-25T18:54:06.579Z,47.30
2019-04-25T18:58:25.088Z,47.60
2019-04-25T19:02:58.922Z,48.30
2019-04-25T19:07:22.536Z,48.60
2019-04-25T19:11:37.079Z,49.20
2019-04-25T19:15:54.622Z,49.40
2019-04-25T19:20:11.799Z,50.30
2019-04-25T19:24:30.762Z,50.70
2019-04-25T19:28:47.349Z,50.50
2019-04-25T19:33:07.253Z,51.30
2019-04-25T19:37:23.259Z,52.30
2019-04-25T19:41:41.662Z,52.00
2019-04-25T19:46:00.759Z,52.40
2019-04-25T19:50:17.965Z,52.50
2019-04-25T19:54:34.554Z,52.90
2019-04-25T19:58:55.939Z,53.70
2019-04-25T20:03:17.234Z,53.40
2019-04-25T20:07:36.521Z,53.70
2019-04-25T20:11:55.099Z,54.20
2019-04-25T20:16:13.596Z,54.10
2019-04-25T20:20:30.428Z,54.70
2019-04-25T20:24:47.044Z,54.70
2019-04-25T20:29:03.785Z,54.90
2019-04-25T20:33:20.460Z,56.00
2019-04-25T20:37:37.378Z,56.00
2019-04-25T20:41:54.006Z,56.00
2019-04-25T20:46:10.616Z,56.50
2019-04-25T20:50:27.199Z,56.90
2019-04-25T20:54:43.661Z,57.30
2019-04-25T20:59:00.153Z,57.80
2019-04-25T21:03:16.902Z,57.70
2019-04-25T21:07:33.713Z,57.80
2019-04-25T21:11:51.274Z,58.20
2019-04-25T21:16:26.407Z,58.10
2019-04-25T21:20:43.163Z,58.60
2019-04-25T21:24:59.599Z,59.00
2019-04-25T21:29:16.050Z,59.20
2019-04-25T21:33:32.693Z,60.20
2019-04-25T21:37:49.553Z,60.60
2019-04-25T21:42:11.833Z,61.40
2019-04-25T21:46:28.726Z,62.60
2019-04-25T21:50:45.724Z,64.30
2019-04-25T21:55:04.148Z,65.30
2019-04-25T21:59:20.918Z,66.10
2019-04-25T22:03:37.471Z,66.90
2019-04-25T22:07:54.430Z,67.40
2019-04-25T22:12:13.973Z,68.00
2019-04-25T22:16:30.532Z,68.50
2019-04-25T22:20:47.456Z,68.60
2019-04-25T22:25:05.007Z,68.80
2019-04-25T22:29:22.083Z,68.30
2019-04-25T22:33:57.177Z,68.30
2019-04-25T22:38:14.095Z,68.20
2019-04-25T22:42:30.605Z,68.60
2019-04-25T22:46:47.091Z,69.00
2019-04-25T22:51:03.868Z,69.30
2019-04-25T22:55:20.492Z,68.30
2019-04-25T22:59:37.168Z,68.00
2019-04-25T23:03:55.608Z,67.80
2019-04-25T23:08:12.671Z,67.40
2019-04-25T23:12:29.465Z,67.20
2019-04-25T23:16:45.893Z,67.20
2019-04-25T23:21:02.530Z,66.90
2019-04-25T23:25:21.321Z,66.70
2019-04-25T23:29:37.735Z,67.60
2019-04-25T23:33:54.496Z,67.60
2019-04-25T23:38:13.759Z,68.40
2019-04-25T23:42:30.044Z,69.00
2019-04-25T23:46:46.793Z,69.80
2019-04-25T23:51:03.429Z,71.60
2019-04-25T23:55:20.078Z,73.20
2019-04-25T23:59:36.524Z,74.40
